createdAt,value
2023-03-27T06:22:02.100Z,70.15
2023-03-27T06:22:14.150Z,70.45
2023-03-27T06:22:23.519Z,70.56
2023-03-27T06:22:37.582Z,70.65
2023-03-27T06:22:44.645Z,71.09
2023-03-27T06:22:53.746Z,71.50
2023-03-27T06:23:03.783Z,71.70
2023-03-27T06:23:24.136Z,71.88
2023-03-27T06:23:34.144Z,72.17
2023-03-27T06:23:44.166Z,72.55
2023-03-27T06:23:54.351Z,71.53
2023-03-27T06:24:04.391Z,71.13
2023-03-27T06:24:14.610Z,71.03
2023-03-27T06:24:24.701Z,70.89
2023-03-27T06:24:34.960Z,70.69
2023-03-27T06:24:45.024Z,71.00
2023-03-27T06:24:55.240Z,70.86
2023-03-27T06:25:05.283Z,70.66
2023-03-27T06:25:15.412Z,70.66
2023-03-27T06:25:25.324Z,70.66
2023-03-27T06:25:35.529Z,70.46
2023-03-27T06:25:45.607Z,70.25
2023-03-27T06:25:55.805Z,70.76
2023-03-27T06:35:08.751Z,69.34
2023-03-27T06:35:18.340Z,69.85
2023-03-27T06:35:28.921Z,70.18
2023-03-27T06:35:39.570Z,70.09
2023-03-27T06:35:52.872Z,70.29
2023-03-27T06:35:59.462Z,70.62
2023-03-27T06:36:09.065Z,71.84
2023-03-27T06:36:19.285Z,72.34
2023-03-27T06:36:29.446Z,71.23
2023-03-27T06:36:39.613Z,71.13
2023-03-27T06:36:49.581Z,71.91
2023-03-27T06:36:59.839Z,72.01
2023-03-27T06:37:09.788Z,72.78
2023-03-27T06:37:20.004Z,72.58
2023-03-27T06:37:30.119Z,71.87
2023-03-27T06:37:40.251Z,71.97
2023-03-27T06:37:51.251Z,71.67
2023-03-27T06:38:00.572Z,71.37
2023-03-27T06:38:10.580Z,70.86
2023-03-27T06:38:20.766Z,70.39
2023-03-27T06:38:30.901Z,70.18
2023-03-27T06:38:41.029Z,70.29
2023-03-27T06:38:51.101Z,70.59
2023-03-27T06:39:01.354Z,70.39
2023-03-27T06:39:11.454Z,69.78
2023-03-27T06:39:21.920Z,69.27
2023-03-27T06:39:31.686Z,69.27
2023-03-27T06:39:41.831Z,69.27
2023-03-27T06:39:51.990Z,69.18
2023-03-27T06:40:02.131Z,69.07
2023-03-27T06:40:12.160Z,68.87
2023-03-27T06:40:22.469Z,68.67
2023-03-27T06:40:32.851Z,68.26
2023-03-27T06:40:42.536Z,67.76
2023-03-27T06:40:52.658Z,67.66
2023-03-27T06:41:02.773Z,67.86
2023-03-27T06:41:12.865Z,67.96
2023-03-27T06:41:23.876Z,67.96
2023-03-27T06:41:33.178Z,68.06
2023-03-27T06:41:43.236Z,67.72
2023-03-27T06:41:53.410Z,67.72
2023-03-27T06:42:03.506Z,67.72
2023-03-27T06:42:13.596Z,67.69
2023-03-27T06:42:33.847Z,66.08
2023-03-27T06:42:43.959Z,65.88
2023-03-27T06:42:54.172Z,65.75
2023-03-27T06:43:04.217Z,65.31
2023-03-27T06:43:14.229Z,65.24
2023-03-27T06:43:24.373Z,64.87
2023-03-27T06:43:34.563Z,65.27
2023-03-27T06:43:44.749Z,66.61
2023-03-27T06:43:54.732Z,67.46
2023-03-27T06:44:04.900Z,66.85
2023-03-27T06:44:15.012Z,66.17
2023-03-27T06:44:25.101Z,66.47
2023-03-27T06:44:35.232Z,67.62
2023-03-27T06:44:45.392Z,68.13
2023-03-27T06:44:55.448Z,68.84
2023-03-27T06:45:05.567Z,69.44
2023-03-27T06:45:15.762Z,69.24
2023-03-27T06:45:25.781Z,69.74
2023-03-27T06:45:36.351Z,68.94
2023-03-27T06:45:46.116Z,68.33
2023-03-27T06:45:56.275Z,67.82
2023-03-27T06:46:06.271Z,68.43
2023-03-27T06:46:16.466Z,68.66
2023-03-27T06:46:35.269Z,68.66
2023-03-27T06:46:48.637Z,68.87
2023-03-27T06:46:54.645Z,68.56
2023-03-27T06:47:04.786Z,68.87
2023-03-27T06:47:14.846Z,69.88
2023-03-27T06:47:25.025Z,69.17
2023-03-27T06:47:44.727Z,68.36
2023-03-27T06:48:15.292Z,68.56
2023-03-27T06:48:25.760Z,68.46
2023-03-27T06:48:31.684Z,69.68
2023-03-27T06:48:42.109Z,69.57
2023-03-27T06:48:51.958Z,69.44
2023-03-27T06:49:02.154Z,69.24
2023-03-27T06:49:12.247Z,68.80
2023-03-27T06:49:32.474Z,66.75
2023-03-27T06:49:42.626Z,66.24
2023-03-27T06:49:52.714Z,66.11
2023-03-27T06:50:02.848Z,66.11
2023-03-27T06:50:12.891Z,65.50
2023-03-27T06:50:24.011Z,64.67
2023-03-27T06:50:33.146Z,64.46
2023-03-27T06:50:43.317Z,64.23
2023-03-27T06:50:53.384Z,64.23
2023-03-27T06:51:03.501Z,63.93
2023-03-27T06:51:13.644Z,63.62
2023-03-27T06:51:33.841Z,62.88
2023-03-27T06:51:44.037Z,62.15
2023-03-27T06:51:55.763Z,61.75
2023-03-27T06:52:04.389Z,61.32
2023-03-27T06:52:14.506Z,61.08
2023-03-27T06:52:24.717Z,60.68
2023-03-27T06:52:38.249Z,60.48
2023-03-27T06:52:44.760Z,60.28
2023-03-27T06:56:23.985Z,62.79
2023-03-27T06:56:35.108Z,62.99
2023-03-27T06:56:45.293Z,63.09
2023-03-27T06:56:55.429Z,63.29
2023-03-27T06:57:05.526Z,63.03
2023-03-27T06:57:15.745Z,62.49
2023-03-27T06:57:25.841Z,61.56
2023-03-27T06:57:36.049Z,60.85
2023-03-27T06:57:46.133Z,60.48
2023-03-27T06:57:56.360Z,60.58
2023-03-27T06:58:06.973Z,60.78
2023-03-27T06:58:16.534Z,60.78
2023-03-27T06:58:26.653Z,60.65
2023-03-27T06:58:36.785Z,60.68
2023-03-27T06:58:46.979Z,60.48
2023-03-27T06:58:57.004Z,60.58
2023-03-27T06:59:07.206Z,60.91
2023-03-27T06:59:17.355Z,61.11
2023-03-27T06:59:27.433Z,61.35
2023-03-27T06:59:37.752Z,61.55
2023-03-27T06:59:47.655Z,61.75
2023-03-27T06:59:59.073Z,62.15
2023-03-27T07:00:08.031Z,62.63
2023-03-27T07:00:18.103Z,62.19
2023-03-27T07:00:28.376Z,61.03
2023-03-27T07:00:38.392Z,60.02
2023-03-27T07:00:49.375Z,59.39
2023-03-27T07:00:58.714Z,59.48
2023-03-27T07:01:08.770Z,58.95
2023-03-27T07:01:18.989Z,58.95
2023-03-27T07:01:28.919Z,59.16
2023-03-27T07:01:39.078Z,59.26
2023-03-27T07:01:59.410Z,59.23
2023-03-27T07:05:55.394Z,56.58
2023-03-27T07:06:06.248Z,56.18
2023-03-27T07:06:16.384Z,56.08
2023-03-27T07:06:26.589Z,55.60
2023-03-27T07:06:38.567Z,55.20
2023-03-27T07:06:46.821Z,55.30
2023-03-27T07:06:56.917Z,55.60
2023-03-27T07:07:07.063Z,55.60
2023-03-27T07:07:17.146Z,55.73
2023-03-27T07:07:27.446Z,55.73
2023-03-27T07:07:38.979Z,56.03
2023-03-27T07:07:49.263Z,56.23
2023-03-27T07:07:57.792Z,56.46
2023-03-27T07:08:21.141Z,56.46
2023-03-27T07:08:27.827Z,56.46
2023-03-27T07:08:33.854Z,56.79
2023-03-27T07:08:44.035Z,57.19
2023-03-27T07:08:54.108Z,57.46
2023-03-27T07:09:04.226Z,56.96
2023-03-27T07:09:14.329Z,56.69
2023-03-27T07:09:35.205Z,56.71
2023-03-27T07:09:44.820Z,57.32
2023-03-27T07:09:54.856Z,57.29
2023-03-27T07:10:04.988Z,57.09
2023-03-27T07:10:15.329Z,56.59
2023-03-27T07:10:25.096Z,56.82
2023-03-27T07:10:35.335Z,57.02
2023-03-27T07:10:50.880Z,57.42
2023-03-27T07:11:11.477Z,57.22
2023-03-27T07:11:17.881Z,57.55
2023-03-27T07:11:24.080Z,57.85
2023-03-27T07:11:34.239Z,57.88
2023-03-27T07:11:44.319Z,58.07
2023-03-27T07:11:54.473Z,58.31
2023-03-27T07:12:04.642Z,58.71
2023-03-27T07:12:24.874Z,58.53
2023-03-27T07:12:34.919Z,58.02
2023-03-27T07:12:45.130Z,57.22
2023-03-27T07:12:55.253Z,57.04
2023-03-27T07:13:05.466Z,57.37
2023-03-27T07:13:15.464Z,57.90
2023-03-27T07:13:25.614Z,58.61
2023-03-27T07:13:35.780Z,58.94
2023-03-27T07:13:46.056Z,59.37
2023-03-27T07:13:55.987Z,59.77
2023-03-27T07:14:06.228Z,60.08
2023-03-27T07:14:16.806Z,60.21
2023-03-27T07:14:26.415Z,60.51
2023-03-27T07:14:36.523Z,60.94
2023-03-27T07:14:46.741Z,61.24
2023-03-27T07:14:56.862Z,61.68
2023-03-27T07:15:06.871Z,62.31
2023-03-27T07:15:17.145Z,62.71
2023-03-27T07:15:27.188Z,63.02
2023-03-27T07:15:37.267Z,63.25
2023-03-27T07:15:47.436Z,63.45
2023-03-27T07:15:57.477Z,63.76
2023-03-27T07:16:07.668Z,63.85
2023-03-27T07:16:17.682Z,64.06
2023-03-27T07:16:27.912Z,64.26
2023-03-27T07:16:38.112Z,64.29
2023-03-27T07:16:48.093Z,64.39
2023-03-27T07:16:59.139Z,64.49
2023-03-27T07:17:09.499Z,64.59
2023-03-27T07:17:18.509Z,64.90
2023-03-27T07:17:38.503Z,65.70
2023-03-27T07:17:51.342Z,65.27
2023-03-27T07:17:57.294Z,64.67
2023-03-27T07:18:07.356Z,64.56
2023-03-27T07:18:17.550Z,64.56
2023-03-27T07:18:27.630Z,64.33
2023-03-27T07:18:37.746Z,64.03
2023-03-27T07:19:01.199Z,64.36
2023-03-27T07:19:08.114Z,64.23
2023-03-27T07:19:18.409Z,63.96
2023-03-27T07:19:28.330Z,63.96
2023-03-27T07:19:38.532Z,64.29
2023-03-27T07:19:48.624Z,64.59
2023-03-27T07:19:58.849Z,64.90
2023-03-27T07:20:08.928Z,65.20
2023-03-27T07:20:19.036Z,65.50
2023-03-27T07:20:29.115Z,65.40
2023-03-27T07:20:39.286Z,65.50
2023-03-27T07:20:49.324Z,65.61
2023-03-27T07:20:59.743Z,65.61
2023-03-27T07:21:09.555Z,65.50
2023-03-27T07:21:19.745Z,65.40
2023-03-27T07:21:29.797Z,65.50
2023-03-27T07:21:40.072Z,65.70
2023-03-27T07:21:50.152Z,65.70
2023-03-27T07:22:00.279Z,65.37
2023-03-27T07:22:10.434Z,65.14
2023-03-27T07:22:20.650Z,64.43
2023-03-27T07:22:30.490Z,63.79
2023-03-27T07:22:40.694Z,63.29
2023-03-27T07:22:50.806Z,62.85
2023-03-27T07:23:04.148Z,62.55
2023-03-27T07:23:10.960Z,62.59
2023-03-27T07:23:21.253Z,62.79
2023-03-27T07:23:31.416Z,63.19
2023-03-27T07:23:41.402Z,63.19
2023-03-27T07:23:51.537Z,62.99
2023-03-27T07:24:11.723Z,62.79
2023-03-27T07:24:21.932Z,62.71
2023-03-27T07:24:31.969Z,62.92
2023-03-27T07:24:42.122Z,62.92
2023-03-27T07:24:52.246Z,63.22
2023-03-27T07:25:02.274Z,63.12
2023-03-27T07:25:12.429Z,63.22
2023-03-27T07:25:22.577Z,63.52
2023-03-27T07:25:32.668Z,64.26
2023-03-27T07:25:42.867Z,64.26
2023-03-27T07:25:52.944Z,63.96
2023-03-27T07:26:03.208Z,63.96
2023-03-27T07:26:13.325Z,63.96
2023-03-27T07:26:23.375Z,64.46
2023-03-27T07:26:33.452Z,64.87
2023-03-27T07:26:43.585Z,64.43
2023-03-27T07:26:53.636Z,63.62
2023-03-27T07:27:03.790Z,63.32
2023-03-27T07:27:14.014Z,63.12
2023-03-27T07:27:24.115Z,63.42
2023-03-27T07:27:34.238Z,63.32
2023-03-27T07:27:44.393Z,63.62
2023-03-27T07:27:54.587Z,63.73
2023-03-27T07:28:06.257Z,63.52
2023-03-27T07:28:14.733Z,63.73
2023-03-27T07:28:24.861Z,63.52
2023-03-27T07:28:35.001Z,63.12
2023-03-27T07:28:45.106Z,62.92
2023-03-27T07:28:55.209Z,63.22
2023-03-27T07:29:05.341Z,63.62
2023-03-27T07:29:15.418Z,64.26
2023-03-27T07:29:25.614Z,64.56
2023-03-27T07:29:35.723Z,64.87
2023-03-27T07:29:45.912Z,64.87
2023-03-27T07:29:57.734Z,64.33
2023-03-27T07:30:06.091Z,64.16
2023-03-27T07:30:16.199Z,64.06
2023-03-27T07:30:26.417Z,64.06
2023-03-27T07:30:36.390Z,64.06
2023-03-27T07:30:46.620Z,64.39
2023-03-27T07:31:10.702Z,64.62
2023-03-27T07:31:37.280Z,64.15
2023-03-27T07:31:58.741Z,64.58
2023-03-27T07:32:09.068Z,66.20
2023-03-27T07:32:22.273Z,67.45
2023-03-27T07:32:37.778Z,68.36
2023-03-27T07:32:44.089Z,69.07
2023-03-27T07:32:54.122Z,69.48
2023-03-27T07:33:04.316Z,69.68
2023-03-27T07:33:14.576Z,69.68
2023-03-27T07:33:24.635Z,69.78
2023-03-27T07:33:44.816Z,69.88
2023-03-27T07:33:54.959Z,69.98
2023-03-27T07:34:05.248Z,70.08
2023-03-27T07:34:15.281Z,69.74
2023-03-27T07:34:25.423Z,69.44
